Time;durP1;ratioP1;P1;durP2;ratioP2;P2;SDS_P1;SDS_P2;PMS_P1;PMS_P2;Temp;Humidity;BMP_temperature;BMP_pressure;BME280_temperature;BME280_humidity;BME280_pressure;Samples;Min_cycle;Max_cycle;Signal;HPM_P1;HPM_P2
2023/06/16 06:22:50;;;;;;;10.52;6.80;;;;;;;28.03;37.48;100111.03;4279545;28;20560;-66
2023/06/16 06:25:17;;;;;;;12.82;7.80;;;;;;;25.14;42.57;100098.69;4204252;28;20248;-70
2023/06/16 06:27:44;;;;;;;17.47;12.20;;;;;;;24.80;42.55;100092.28;4245014;28;21502;-67
2023/06/16 06:30:11;;;;;;;16.42;8.07;;;;;;;24.83;42.81;100087.09;4228211;28;20236;-66
2023/06/16 06:32:38;;;;;;;14.30;6.50;;;;;;;26.22;40.23;100084.63;4225365;28;20310;-67
2023/06/16 06:35:06;;;;;;;11.27;5.60;;;;;;;27.01;40.01;100096.22;4245989;28;20249;-68
2023/06/16 06:37:32;;;;;;;10.07;6.80;;;;;;;25.65;40.79;100083.91;4233030;28;20235;-68
2023/06/16 06:39:59;;;;;;;9.73;6.45;;;;;;;26.49;39.50;100092.13;4237728;28;20230;-69
2023/06/16 06:42:27;;;;;;;9.43;6.60;;;;;;;26.54;39.19;100092.16;4222200;28;20321;-66
2023/06/16 06:44:53;;;;;;;8.88;6.53;;;;;;;26.39;39.75;100093.69;4237200;28;20410;-67
2023/06/16 06:47:21;;;;;;;12.43;6.88;;;;;;;28.38;36.13;100093.63;4221953;28;20239;-65
2023/06/16 06:49:49;;;;;;;11.82;7.18;;;;;;;25.55;40.93;100098.47;4233918;28;20235;-67
2023/06/16 06:52:16;;;;;;;12.20;6.43;;;;;;;25.52;41.44;100096.19;4245655;28;20243;-69
2023/06/16 06:54:43;;;;;;;11.50;7.30;;;;;;;25.90;40.87;100096.44;4235451;28;20281;-67
2023/06/16 06:57:10;;;;;;;10.07;7.13;;;;;;;26.00;39.96;100096.53;4226899;28;25077;-68
2023/06/16 06:59:38;;;;;;;8.77;6.93;;;;;;;25.81;40.63;100109.91;4218450;28;25790;-67
2023/06/16 07:02:06;;;;;;;11.80;6.88;;;;;;;27.01;37.89;100104.56;4223425;28;20293;-67
2023/06/16 07:04:33;;;;;;;12.27;6.40;;;;;;;27.35;37.14;100107.03;4241041;28;20348;-69
2023/06/16 07:07:01;;;;;;;10.50;5.82;;;;;;;27.91;36.47;100103.75;4232423;28;20671;-66
2023/06/16 07:09:28;;;;;;;6.93;4.72;;;;;;;28.72;33.79;100100.69;4220933;28;20228;-68
2023/06/16 07:11:57;;;;;;;8.80;5.75;;;;;;;27.09;36.85;100103.25;4255191;28;20281;-68
2023/06/16 07:14:23;;;;;;;11.27;4.95;;;;;;;28.29;34.55;100104.47;4232560;28;21230;-69
2023/06/16 07:16:50;;;;;;;9.90;4.60;;;;;;;29.43;32.59;100103.72;4246466;28;20227;-73
2023/06/16 07:19:17;;;;;;;10.45;5.55;;;;;;;29.74;31.86;100104.50;4236942;28;21732;-70
2023/06/16 07:21:44;;;;;;;8.13;5.35;;;;;;;29.56;31.85;100114.31;4243908;28;21101;-70
2023/06/16 07:24:11;;;;;;;9.37;6.67;;;;;;;27.65;36.18;100111.97;4238683;28;20239;-69
2023/06/16 07:26:37;;;;;;;8.33;5.47;;;;;;;26.71;37.15;100105.94;4239677;28;20324;-70
2023/06/16 07:29:04;;;;;;;10.03;6.07;;;;;;;25.42;40.05;100107.13;4244408;28;20241;-69
2023/06/16 07:31:33;;;;;;;10.80;5.93;;;;;;;25.14;39.97;100103.34;4238645;28;20233;-72
2023/06/16 07:34:00;;;;;;;15.30;7.60;;;;;;;24.97;40.55;100114.44;4231230;28;21088;-72
2023/06/16 07:36:26;;;;;;;12.38;6.50;;;;;;;25.73;39.22;100108.41;4235688;28;20928;-73
2023/06/16 07:38:53;;;;;;;9.73;5.23;;;;;;;26.92;36.20;100098.66;4236904;28;20301;-66
2023/06/16 07:41:19;;;;;;;10.73;7.43;;;;;;;26.71;36.67;100108.72;4226782;28;20693;-67
2023/06/16 07:43:48;;;;;;;9.90;5.63;;;;;;;26.61;37.07;100097.53;4219839;28;20292;-67
2023/06/16 07:46:17;;;;;;;8.93;5.53;;;;;;;26.54;36.08;100098.59;4220810;28;20713;-67
2023/06/16 07:48:44;;;;;;;11.87;5.10;;;;;;;26.94;35.52;100101.16;4223851;28;20312;-67
2023/06/16 07:51:10;;;;;;;5.87;4.20;;;;;;;26.66;35.50;100097.56;4241104;28;20291;-69
2023/06/16 07:53:39;;;;;;;5.93;4.40;;;;;;;26.79;35.04;100090.78;4243719;28;20227;-66
2023/06/16 07:56:06;;;;;;;7.78;4.30;;;;;;;27.05;34.55;100097.38;4227861;28;20272;-67
2023/06/16 07:58:35;;;;;;;9.97;4.37;;;;;;;27.26;34.26;100095.59;4238246;28;20327;-70
2023/06/16 08:01:01;;;;;;;6.60;4.10;;;;;;;27.08;33.93;100093.22;4236466;28;20625;-67
2023/06/16 08:03:28;;;;;;;8.93;4.43;;;;;;;26.77;34.87;100096.59;4234952;28;23562;-66
2023/06/16 08:05:55;;;;;;;8.63;4.23;;;;;;;26.61;34.84;100098.34;4233928;28;20368;-66
2023/06/16 08:08:23;;;;;;;6.43;4.03;;;;;;;25.87;36.35;100094.16;4228268;28;21037;-65
2023/06/16 08:10:51;;;;;;;13.13;5.13;;;;;;;25.72;37.44;100094.81;4237617;28;20663;-69
2023/06/16 08:13:17;;;;;;;11.67;5.83;;;;;;;25.57;38.13;100103.75;4230424;28;20239;-65
2023/06/16 08:15:44;;;;;;;9.80;5.03;;;;;;;26.26;36.33;100089.38;4229513;28;20235;-66
2023/06/16 08:18:10;;;;;;;7.13;4.10;;;;;;;26.38;36.05;100093.97;4232566;28;20310;-67
2023/06/16 08:20:37;;;;;;;15.40;9.87;;;;;;;25.93;36.90;100096.75;4238394;28;20302;-71
2023/06/16 08:23:04;;;;;;;5.60;3.90;;;;;;;26.20;37.53;100096.00;4225969;28;20616;-67
2023/06/16 08:25:30;;;;;;;8.77;4.50;;;;;;;26.01;37.07;100095.44;4224306;28;20316;-66
2023/06/16 08:27:57;;;;;;;9.40;4.03;;;;;;;26.67;36.21;100102.84;4223738;28;21427;-64
2023/06/16 08:30:24;;;;;;;13.33;4.23;;;;;;;26.91;34.77;100096.97;4224157;28;20301;-68
2023/06/16 08:32:52;;;;;;;6.85;3.72;;;;;;;26.32;36.41;100097.78;4229827;28;20580;-63
2023/06/16 08:35:19;;;;;;;6.77;3.70;;;;;;;25.64;36.42;100101.63;4227178;28;20571;-66
2023/06/16 08:37:46;;;;;;;5.40;3.47;;;;;;;26.68;35.21;100089.81;4228768;28;20231;-66
2023/06/16 08:40:13;;;;;;;6.93;4.60;;;;;;;26.33;35.19;100093.88;4235699;28;20262;-66
2023/06/16 08:42:41;;;;;;;13.47;4.67;;;;;;;26.64;36.26;100085.88;4239126;28;20510;-68
2023/06/16 08:45:09;;;;;;;8.23;3.67;;;;;;;27.28;34.39;100098.09;4222593;28;21287;-63
2023/06/16 08:47:39;;;;;;;12.67;3.37;;;;;;;27.55;33.27;100088.84;4241260;28;25464;-65
2023/06/16 08:50:09;;;;;;;8.70;3.92;;;;;;;27.27;34.29;100093.66;4223271;28;20228;-66
2023/06/16 08:52:39;;;;;;;11.20;3.78;;;;;;;27.16;33.13;100098.28;4237455;28;20238;-66
2023/06/16 08:55:13;;;;;;;6.90;3.72;;;;;;;26.01;35.57;100094.63;4234747;28;20226;-67
2023/06/16 08:58:00;;;;;;;5.45;4.00;;;;;;;26.52;35.98;100092.44;4230270;28;22634;-67
2023/06/16 09:00:30;;;;;;;6.40;3.80;;;;;;;26.02;35.54;100083.25;4233664;28;20249;-65
2023/06/16 09:02:56;;;;;;;10.43;4.00;;;;;;;25.98;36.07;100092.38;4241882;28;20230;-66
2023/06/16 09:05:25;;;;;;;6.97;4.47;;;;;;;25.29;36.92;100072.31;4218402;28;20239;-65
2023/06/16 09:07:52;;;;;;;7.28;4.40;;;;;;;24.98;38.01;100080.97;4232320;28;20318;-67
2023/06/16 09:10:19;;;;;;;9.43;4.78;;;;;;;24.85;39.09;100084.06;4223506;28;20254;-67
2023/06/16 09:12:51;;;;;;;8.38;5.00;;;;;;;23.97;40.73;100081.59;4235773;28;20301;-68
2023/06/16 09:15:17;;;;;;;8.70;4.45;;;;;;;23.71;40.10;100086.56;4225217;28;21678;-64
2023/06/16 09:17:47;;;;;;;17.27;4.63;;;;;;;23.85;40.59;100076.06;4224417;28;21124;-65
2023/06/16 09:20:15;;;;;;;8.67;4.27;;;;;;;24.03;40.85;100080.59;4239313;28;20239;-64
2023/06/16 09:22:42;;;;;;;13.77;5.53;;;;;;;24.25;40.48;100077.13;4226000;28;20240;-65
2023/06/16 09:25:12;;;;;;;9.67;5.50;;;;;;;24.44;41.07;100077.78;4233120;28;20312;-66
2023/06/16 09:27:43;;;;;;;11.53;5.73;;;;;;;24.79;40.51;100079.53;4210712;28;20231;-67
2023/06/16 09:30:14;;;;;;;13.30;5.97;;;;;;;24.91;38.90;100080.28;4231427;28;20599;-64
2023/06/16 09:32:42;;;;;;;9.13;5.60;;;;;;;25.29;38.22;100080.63;4221100;28;26121;-67
2023/06/16 09:35:26;;;;;;;10.82;6.30;;;;;;;24.93;39.10;100074.50;4236851;28;20558;-70
2023/06/16 09:37:57;;;;;;;14.03;6.20;;;;;;;25.01;38.49;100065.75;4234884;28;20764;-69
2023/06/16 09:40:28;;;;;;;16.30;7.50;;;;;;;24.05;41.29;100061.84;4218965;28;20243;-69
2023/06/16 09:42:58;;;;;;;14.87;5.90;;;;;;;24.77;39.60;100065.97;4235535;28;21157;-71
2023/06/16 09:45:32;;;;;;;17.97;6.33;;;;;;;24.28;40.63;100065.59;4230346;28;20238;-68
2023/06/16 09:48:17;;;;;;;9.53;5.33;;;;;;;25.00;39.21;100073.25;4248087;28;20227;-50
2023/06/16 09:50:43;;;;;;;9.70;5.10;;;;;;;24.94;38.87;100063.19;4243022;28;21751;-71
2023/06/16 09:53:10;;;;;;;9.03;4.70;;;;;;;24.89;38.30;100057.53;4224259;28;20244;-71
2023/06/16 09:55:39;;;;;;;15.13;6.35;;;;;;;24.72;39.50;100059.50;4237071;28;20232;-73
2023/06/16 09:58:05;;;;;;;7.97;5.00;;;;;;;24.64;39.80;100056.03;4230859;28;20242;-74
2023/06/16 10:00:33;;;;;;;9.00;4.53;;;;;;;25.35;39.43;100054.66;4225523;28;20239;-71
2023/06/16 10:03:01;;;;;;;10.68;5.18;;;;;;;24.62;39.73;100060.97;4222682;28;20234;-72
2023/06/16 10:05:28;;;;;;;10.00;5.10;;;;;;;24.89;40.16;100056.72;4232158;28;22835;-69
2023/06/16 10:07:56;;;;;;;9.80;6.10;;;;;;;24.07;42.12;100053.28;4219401;28;20287;-71
2023/06/16 10:10:29;;;;;;;14.63;6.33;;;;;;;23.92;42.79;100049.09;4216398;28;20234;-71
2023/06/16 10:12:56;;;;;;;11.43;5.37;;;;;;;24.41;41.57;100051.44;4237187;28;20264;-68
2023/06/16 10:15:23;;;;;;;15.03;5.40;;;;;;;24.71;40.79;100043.97;4215985;28;20293;-68
2023/06/16 10:17:51;;;;;;;9.77;4.73;;;;;;;25.17;39.23;100050.25;4220470;28;20234;-68
2023/06/16 10:20:19;;;;;;;9.40;5.00;;;;;;;25.00;39.97;100048.31;4241365;28;20404;-69
2023/06/16 10:22:47;;;;;;;13.23;5.27;;;;;;;24.76;39.39;100049.59;4228354;28;20266;-68
2023/06/16 10:25:14;;;;;;;12.68;5.55;;;;;;;24.72;38.74;100037.34;4211992;28;20665;-70
2023/06/16 10:27:41;;;;;;;9.83;4.73;;;;;;;24.68;40.57;100037.00;4208758;28;20324;-71
2023/06/16 10:30:09;;;;;;;8.80;4.83;;;;;;;24.84;40.01;100038.94;4220583;28;20425;-71
2023/06/16 10:32:37;;;;;;;9.43;4.77;;;;;;;24.86;39.54;100049.75;4220525;28;20449;-69
2023/06/16 10:35:07;;;;;;;11.63;5.90;;;;;;;24.17;40.50;100045.19;4224207;28;20295;-71
2023/06/16 10:37:33;;;;;;;10.83;5.13;;;;;;;24.43;41.23;100037.38;4221463;28;20306;-46
2023/06/16 10:40:08;;;;;;;17.13;6.73;;;;;;;23.95;42.70;100036.75;4223542;28;20297;-47
2023/06/16 10:42:35;;;;;;;12.63;6.32;;;;;;;23.65;42.98;100037.75;4224874;28;21460;-45
2023/06/16 10:45:26;;;;;;;8.87;5.17;;;;;;;23.77;42.24;100029.44;4220744;28;20908;-46
2023/06/16 10:47:57;;;;;;;11.20;5.60;;;;;;;24.29;40.48;100036.84;4228887;28;20360;-44
2023/06/16 10:50:40;;;;;;;8.80;5.73;;;;;;;24.48;41.31;100027.22;4236569;28;21760;-66
2023/06/16 10:53:10;;;;;;;16.23;5.67;;;;;;;24.74;40.25;100024.94;4224759;28;20223;-66
2023/06/16 10:55:39;;;;;;;7.73;5.70;;;;;;;24.51;40.86;100020.34;4228356;28;20996;-65
2023/06/16 10:58:28;;;;;;;9.40;5.50;;;;;;;24.42;40.24;100022.69;4226095;28;20335;-63
2023/06/16 11:01:01;;;;;;;9.70;4.87;;;;;;;24.77;38.33;100015.28;4194866;28;20354;-65
2023/06/16 11:03:33;;;;;;;8.63;5.43;;;;;;;24.87;39.14;100022.91;4230166;28;20235;-64
2023/06/16 11:06:01;;;;;;;10.40;5.40;;;;;;;24.61;39.41;100023.28;4235254;28;21139;-64
2023/06/16 11:08:28;;;;;;;8.13;5.53;;;;;;;24.60;39.34;100015.25;4226500;28;20239;-64
2023/06/16 11:11:04;;;;;;;12.07;5.72;;;;;;;24.61;39.79;100017.75;4229563;28;20240;-64
2023/06/16 11:13:33;;;;;;;8.83;5.73;;;;;;;24.38;40.78;100013.22;4234920;28;21442;-62
2023/06/16 11:16:00;;;;;;;10.67;5.40;;;;;;;24.43;40.20;100012.47;4242771;28;20282;-64
2023/06/16 11:18:29;;;;;;;10.43;5.50;;;;;;;25.04;40.00;100009.06;4234530;28;20243;-64
2023/06/16 11:21:00;;;;;;;8.13;5.40;;;;;;;25.76;38.14;100015.56;4250852;28;20240;-67
2023/06/16 11:23:27;;;;;;;8.83;4.70;;;;;;;25.43;36.76;100011.81;4226751;28;20240;-64
2023/06/16 11:26:06;;;;;;;11.70;4.75;;;;;;;25.74;36.39;100010.31;4230369;28;20247;-65
2023/06/16 11:28:36;;;;;;;8.47;4.70;;;;;;;26.03;35.29;100003.66;4232538;28;20674;-67
2023/06/16 11:31:05;;;;;;;6.45;4.45;;;;;;;26.15;35.08;100017.41;4230833;28;20230;-65
2023/06/16 11:33:33;;;;;;;9.88;6.20;;;;;;;25.73;35.02;100002.22;4237259;28;20236;-66
2023/06/16 11:36:35;;;;;;;7.28;4.70;;;;;;;25.92;34.64;100009.13;4233277;28;20231;-67
2023/06/16 11:39:04;;;;;;;6.60;4.72;;;;;;;26.05;34.72;100007.88;4216923;28;20232;-64
2023/06/16 11:41:31;;;;;;;7.88;4.63;;;;;;;25.75;35.46;100005.56;4221466;28;22727;-64
2023/06/16 11:43:58;;;;;;;10.63;5.10;;;;;;;26.05;34.62;100002.31;4242872;28;20235;-64
2023/06/16 11:46:32;;;;;;;7.95;4.78;;;;;;;25.76;35.28;99997.00;4242356;28;24802;-67
2023/06/16 11:49:01;;;;;;;7.57;5.03;;;;;;;25.64;36.31;99996.31;4228609;28;21833;-63
2023/06/16 11:51:28;;;;;;;9.02;5.10;;;;;;;25.87;35.51;99992.41;4238194;28;20240;-64
2023/06/16 11:53:54;;;;;;;5.60;4.13;;;;;;;25.30;35.89;99991.69;4215437;28;20301;-67
2023/06/16 11:56:25;;;;;;;6.57;4.85;;;;;;;25.57;36.07;99995.66;4234034;28;20306;-65
2023/06/16 11:58:52;;;;;;;7.97;4.93;;;;;;;25.43;35.78;99989.66;4232220;28;20244;-68
2023/06/16 12:01:20;;;;;;;6.87;4.87;;;;;;;25.33;36.28;99983.97;4239999;28;20867;-66
2023/06/16 12:03:47;;;;;;;7.10;4.47;;;;;;;25.43;36.92;99975.81;4245393;28;20324;-65
2023/06/16 12:06:29;;;;;;;8.03;4.23;;;;;;;25.54;35.04;99985.94;4235385;28;20255;-65
2023/06/16 12:08:56;;;;;;;6.97;4.57;;;;;;;25.71;34.75;99976.72;4240870;28;22204;-62
2023/06/16 12:11:30;;;;;;;8.90;4.43;;;;;;;25.85;34.91;99975.22;4234896;28;20227;-65
2023/06/16 12:13:57;;;;;;;8.18;4.28;;;;;;;25.58;34.84;99976.00;4237626;28;20235;-63
2023/06/16 12:16:25;;;;;;;7.23;3.93;;;;;;;25.68;35.00;99977.22;4226317;28;20339;-66
2023/06/16 12:18:52;;;;;;;6.53;4.30;;;;;;;25.81;34.70;99985.13;4224009;28;20278;-64
2023/06/16 12:21:24;;;;;;;9.02;4.25;;;;;;;25.76;35.12;99980.34;4231381;28;20386;-64
2023/06/16 12:23:52;;;;;;;7.53;4.27;;;;;;;25.78;34.13;99978.16;4242774;28;21301;-66
2023/06/16 12:26:46;;;;;;;8.05;4.65;;;;;;;26.04;34.11;99974.84;4234815;28;20235;-63
2023/06/16 12:29:14;;;;;;;6.63;3.80;;;;;;;26.01;33.52;99980.91;4248851;28;20673;-63
2023/06/16 12:31:51;;;;;;;8.90;4.30;;;;;;;26.32;32.84;99970.16;4238129;28;22917;-65
2023/06/16 12:34:33;;;;;;;10.87;4.23;;;;;;;26.60;31.93;99968.16;4222633;28;20240;-65
2023/06/16 12:37:02;;;;;;;5.55;3.90;;;;;;;26.14;33.02;99968.56;4235339;28;20234;-64
2023/06/16 12:39:29;;;;;;;6.05;3.60;;;;;;;26.46;33.07;99968.59;4237657;28;20240;-65
2023/06/16 12:42:07;;;;;;;7.00;3.47;;;;;;;26.70;32.47;99969.06;4221306;28;20234;-64
2023/06/16 12:44:40;;;;;;;10.75;4.00;;;;;;;26.39;32.27;99970.75;4231161;28;20738;-64
2023/06/16 12:47:08;;;;;;;7.43;3.80;;;;;;;26.24;31.85;99961.22;4220103;28;21262;-64
2023/06/16 12:49:34;;;;;;;7.72;3.45;;;;;;;26.36;31.69;99963.78;4235212;28;23608;-67
2023/06/16 12:52:01;;;;;;;6.00;3.20;;;;;;;26.61;31.73;99962.31;4229638;28;20235;-65
2023/06/16 12:54:28;;;;;;;7.45;3.25;;;;;;;26.47;31.99;99956.41;4237393;28;20235;-65
2023/06/16 12:56:55;;;;;;;7.35;3.55;;;;;;;26.96;30.62;99951.75;4239643;28;21158;-65
2023/06/16 12:59:21;;;;;;;4.70;3.03;;;;;;;26.94;30.56;99949.25;4218696;28;20323;-65
2023/06/16 13:01:48;;;;;;;6.60;3.28;;;;;;;26.32;31.29;99954.31;4227336;28;20227;-65
2023/06/16 13:04:14;;;;;;;6.43;3.33;;;;;;;26.10;32.01;99954.38;4239557;28;20234;-63
2023/06/16 13:06:41;;;;;;;6.88;3.53;;;;;;;26.19;31.94;99950.03;4243898;28;26571;-64
2023/06/16 13:09:07;;;;;;;5.90;3.42;;;;;;;26.71;31.89;99940.19;4228465;28;20273;-66
2023/06/16 13:11:34;;;;;;;5.43;3.20;;;;;;;26.93;31.32;99952.31;4245895;28;20238;-65
2023/06/16 13:14:03;;;;;;;7.78;3.42;;;;;;;26.53;31.38;99949.78;4238324;28;20238;-67
2023/06/16 13:16:33;;;;;;;5.40;2.90;;;;;;;26.30;32.25;99944.59;4225797;28;20243;-64
2023/06/16 13:18:59;;;;;;;7.72;3.38;;;;;;;27.21;31.40;99942.72;4223496;28;22080;-64
2023/06/16 13:21:26;;;;;;;7.93;3.20;;;;;;;27.70;29.83;99935.16;4234798;28;20242;-66
2023/06/16 13:23:53;;;;;;;6.97;3.30;;;;;;;27.93;30.27;99931.00;4234451;28;20399;-66
2023/06/16 13:26:20;;;;;;;4.60;3.20;;;;;;;28.02;29.30;99936.88;4232266;28;23211;-65
2023/06/16 13:28:48;;;;;;;7.87;3.73;;;;;;;27.70;30.77;99929.59;4223008;28;20240;-66
2023/06/16 13:31:14;;;;;;;8.00;3.70;;;;;;;27.09;32.33;99940.16;4226993;28;20237;-64
2023/06/16 13:33:44;;;;;;;6.80;3.83;;;;;;;25.93;33.58;99935.06;4223168;28;20599;-64
2023/06/16 13:36:16;;;;;;;5.82;3.72;;;;;;;26.24;34.60;99936.25;4220404;28;23632;-66
2023/06/16 13:38:43;;;;;;;6.80;4.00;;;;;;;26.37;33.96;99932.16;4238200;28;20251;-67
2023/06/16 13:41:10;;;;;;;5.13;3.47;;;;;;;26.51;33.85;99926.19;4238357;28;20241;-67
2023/06/16 13:43:37;;;;;;;8.93;3.57;;;;;;;26.68;33.97;99926.00;4242075;28;20265;-70
2023/06/16 13:46:05;;;;;;;5.70;3.97;;;;;;;26.87;32.76;99924.47;4237076;28;20236;-67
2023/06/16 13:48:31;;;;;;;5.07;3.60;;;;;;;26.80;33.13;99921.13;4234708;28;21754;-67
2023/06/16 13:50:58;;;;;;;6.13;3.58;;;;;;;26.15;33.20;99918.41;4227881;28;20232;-65
2023/06/16 13:53:25;;;;;;;7.63;3.37;;;;;;;26.99;31.62;99923.44;4237890;28;20234;-67
2023/06/16 13:55:52;;;;;;;6.47;4.47;;;;;;;27.52;31.13;99915.94;4232065;28;20246;-67
2023/06/16 13:58:19;;;;;;;6.63;3.40;;;;;;;27.38;31.90;99908.31;4225992;28;20700;-65
2023/06/16 14:00:46;;;;;;;4.87;3.73;;;;;;;26.88;32.29;99909.50;4229567;28;22996;-69
2023/06/16 14:03:13;;;;;;;6.53;3.78;;;;;;;26.95;32.58;99902.84;4216689;28;20235;-67
2023/06/16 14:05:40;;;;;;;9.85;3.53;;;;;;;27.23;32.63;99896.06;4228915;28;20547;-68
2023/06/16 14:08:07;;;;;;;5.43;3.00;;;;;;;27.51;31.28;99902.28;4237000;28;23970;-66
2023/06/16 14:10:34;;;;;;;6.63;3.50;;;;;;;27.21;31.69;99895.47;4223536;28;20484;-67
2023/06/16 14:13:01;;;;;;;4.33;3.50;;;;;;;26.78;32.45;99900.28;4232834;28;25300;-66
2023/06/16 14:15:35;;;;;;;8.07;3.45;;;;;;;26.56;32.01;99899.28;4217816;28;20698;-67
2023/06/16 14:18:01;;;;;;;4.43;3.50;;;;;;;26.25;33.07;99901.00;4230434;28;20246;-66
2023/06/16 14:20:28;;;;;;;6.97;3.50;;;;;;;26.01;33.48;99898.53;4230775;28;20227;-65
2023/06/16 14:22:56;;;;;;;7.33;3.47;;;;;;;25.98;33.76;99893.53;4230951;28;21630;-66
2023/06/16 14:25:23;;;;;;;9.53;3.90;;;;;;;25.97;34.26;99894.63;4232507;28;20240;-68
2023/06/16 14:27:49;;;;;;;8.20;4.07;;;;;;;25.93;33.61;99893.47;4228660;28;21872;-66
2023/06/16 14:30:16;;;;;;;11.43;4.43;;;;;;;26.01;33.86;99889.41;4225113;28;20306;-72
2023/06/16 14:32:43;;;;;;;8.27;3.80;;;;;;;25.64;34.36;99879.88;4228981;28;20644;-67
2023/06/16 14:35:09;;;;;;;5.10;4.13;;;;;;;25.49;35.25;99883.34;4228684;28;20297;-68
2023/06/16 14:37:36;;;;;;;5.60;3.80;;;;;;;25.32;34.60;99880.63;4228077;28;20487;-68
2023/06/16 14:40:03;;;;;;;7.77;3.93;;;;;;;25.63;35.32;99880.97;4205232;28;20227;-69
2023/06/16 14:42:31;;;;;;;6.93;3.57;;;;;;;25.65;34.44;99880.72;4230878;28;25972;-72
2023/06/16 14:44:57;;;;;;;6.83;3.90;;;;;;;25.76;34.64;99869.47;4234776;28;20319;-70
2023/06/16 14:47:24;;;;;;;7.87;4.37;;;;;;;25.21;36.33;99876.88;4237388;28;20240;-69
2023/06/16 14:49:51;;;;;;;6.30;4.30;;;;;;;24.63;37.46;99870.81;4236524;28;21766;-72
2023/06/16 14:52:17;;;;;;;11.23;4.73;;;;;;;24.56;37.60;99872.94;4227218;28;20238;-65
2023/06/16 14:54:44;;;;;;;7.97;4.23;;;;;;;24.56;37.48;99859.97;4219352;28;20236;-71
2023/06/16 14:57:11;;;;;;;5.97;4.30;;;;;;;24.64;37.43;99856.75;4227436;28;20236;-71
2023/06/16 14:59:37;;;;;;;11.70;4.63;;;;;;;24.59;38.21;99864.97;4238895;28;21014;-69
2023/06/16 15:02:04;;;;;;;8.90;4.90;;;;;;;24.57;39.22;99858.03;4226094;28;20283;-69
2023/06/16 15:04:31;;;;;;;7.40;4.83;;;;;;;24.57;39.04;99864.41;4226054;28;20258;-69
2023/06/16 15:06:59;;;;;;;7.93;4.50;;;;;;;24.62;38.92;99864.47;4233743;28;22313;-72
2023/06/16 15:09:27;;;;;;;8.33;5.07;;;;;;;24.59;39.54;99853.06;4233889;28;20243;-73
2023/06/16 15:11:54;;;;;;;7.93;5.07;;;;;;;24.35;40.18;99858.81;4240375;28;20267;-68
2023/06/16 15:14:20;;;;;;;8.10;4.97;;;;;;;24.35;40.02;99859.66;4223445;28;20276;-70
2023/06/16 15:16:47;;;;;;;10.53;5.57;;;;;;;24.11;40.80;99850.69;4234721;28;20435;-71
2023/06/16 15:19:13;;;;;;;7.07;5.63;;;;;;;24.02;41.38;99844.75;4229639;28;20228;-73
2023/06/16 15:21:40;;;;;;;9.97;5.70;;;;;;;24.27;41.10;99851.78;4222187;28;20314;-73
2023/06/16 15:24:07;;;;;;;8.27;5.90;;;;;;;24.03;40.67;99853.88;4236218;28;20440;-73
2023/06/16 15:26:34;;;;;;;9.50;6.47;;;;;;;23.98;41.58;99846.34;4229004;28;20241;-70
2023/06/16 15:29:01;;;;;;;10.63;5.97;;;;;;;23.75;41.89;99850.06;4230571;28;20239;-72
2023/06/16 15:31:28;;;;;;;12.50;5.83;;;;;;;23.92;42.62;99850.06;4222415;28;20227;-73
2023/06/16 15:33:54;;;;;;;9.23;6.23;;;;;;;24.00;41.79;99849.69;4225063;28;20235;-72
2023/06/16 15:36:21;;;;;;;15.73;7.03;;;;;;;23.87;42.10;99847.22;4219971;28;20235;-73
2023/06/16 15:38:47;;;;;;;13.47;6.37;;;;;;;23.98;41.46;99853.81;4295532;28;20231;-74
2023/06/16 15:41:15;;;;;;;10.03;5.70;;;;;;;24.06;41.68;99850.63;4260044;28;24958;-74
2023/06/16 15:43:42;;;;;;;9.83;5.77;;;;;;;23.83;41.85;99851.59;4315863;28;21197;-73
2023/06/16 15:46:11;;;;;;;8.97;6.03;;;;;;;23.87;41.40;99838.94;4269618;28;20229;-71
2023/06/16 15:48:43;;;;;;;13.57;6.23;;;;;;;23.64;42.45;99842.69;4279831;28;20249;-72
2023/06/16 15:51:11;;;;;;;10.57;6.50;;;;;;;23.64;42.34;99842.69;4283429;28;20323;-73
2023/06/16 15:53:39;;;;;;;8.93;5.67;;;;;;;23.86;41.02;99849.16;4237765;28;20297;-71
2023/06/16 15:56:05;;;;;;;9.50;5.33;;;;;;;23.78;40.81;99846.81;4234755;28;20232;-73
2023/06/16 15:58:32;;;;;;;11.10;5.53;;;;;;;23.71;41.10;99846.13;4236975;28;20268;-71
2023/06/16 16:00:58;;;;;;;9.83;5.83;;;;;;;23.35;41.63;99853.75;4225803;28;21740;-70
2023/06/16 16:03:26;;;;;;;8.50;5.50;;;;;;;23.43;41.56;99845.06;4232054;28;20295;-70
2023/06/16 16:05:53;;;;;;;11.23;5.00;;;;;;;23.44;41.10;99840.41;4234775;28;20262;-69
2023/06/16 16:08:20;;;;;;;7.30;5.27;;;;;;;23.32;41.10;99845.97;4233820;28;21149;-72
2023/06/16 16:10:47;;;;;;;12.93;5.30;;;;;;;23.38;41.19;99840.28;4232212;28;20574;-70
2023/06/16 16:13:14;;;;;;;7.20;5.07;;;;;;;23.32;41.12;99851.50;4225650;28;20236;-69
2023/06/16 16:15:41;;;;;;;10.33;5.17;;;;;;;23.19;40.78;99847.09;4227674;28;20646;-74
2023/06/16 16:18:07;;;;;;;7.17;5.00;;;;;;;23.14;39.72;99849.72;4229978;28;20603;-72
2023/06/16 16:20:34;;;;;;;14.07;5.13;;;;;;;23.03;40.35;99845.91;4237443;28;21784;-77
2023/06/16 16:23:01;;;;;;;6.77;4.67;;;;;;;23.02;39.68;99845.06;4230047;28;23396;-75
2023/06/16 16:25:27;;;;;;;7.63;4.53;;;;;;;23.07;39.39;99853.47;4230363;28;20387;-70
2023/06/16 16:27:55;;;;;;;7.60;5.10;;;;;;;23.03;39.32;99852.28;4225922;28;20317;-72
2023/06/16 16:30:21;;;;;;;7.87;4.60;;;;;;;23.11;39.04;99859.34;4225150;28;20248;-69
2023/06/16 16:32:48;;;;;;;7.93;4.83;;;;;;;23.17;39.33;99861.16;4225011;28;21145;-74
2023/06/16 16:35:15;;;;;;;8.53;5.07;;;;;;;23.24;38.87;99863.75;4226365;28;22378;-69
2023/06/16 16:37:42;;;;;;;10.17;4.60;;;;;;;23.21;38.36;99855.97;4230631;28;20242;-70
2023/06/16 16:40:09;;;;;;;11.50;5.37;;;;;;;23.22;38.59;99858.47;4232709;28;21212;-71
2023/06/16 16:42:36;;;;;;;11.70;5.13;;;;;;;22.92;39.15;99865.03;4214911;28;24943;-73
2023/06/16 16:45:04;;;;;;;10.80;4.83;;;;;;;23.06;39.23;99859.22;4230677;28;20236;-72
2023/06/16 16:47:31;;;;;;;8.53;5.03;;;;;;;22.96;40.37;99865.38;4231125;28;22414;-74
2023/06/16 16:49:58;;;;;;;10.90;5.10;;;;;;;22.89;40.14;99850.88;4226316;28;20246;-75
2023/06/16 16:52:25;;;;;;;9.47;4.80;;;;;;;22.91;40.52;99852.31;4221843;28;20231;-72
2023/06/16 16:54:51;;;;;;;14.63;5.40;;;;;;;22.74;40.67;99856.88;4237582;28;20228;-74
2023/06/16 16:57:18;;;;;;;7.73;4.83;;;;;;;22.70;41.07;99853.78;4229831;28;21760;-71
2023/06/16 16:59:45;;;;;;;8.97;5.57;;;;;;;22.71;41.29;99855.44;4221303;28;21251;-71
2023/06/16 17:02:12;;;;;;;6.87;4.83;;;;;;;22.76;41.20;99852.81;4230840;28;21250;-71
2023/06/16 17:04:39;;;;;;;10.67;5.00;;;;;;;22.76;41.31;99850.06;4229745;28;20234;-72
2023/06/16 17:07:05;;;;;;;9.27;5.47;;;;;;;22.87;41.63;99858.53;4221662;28;20380;-70
2023/06/16 17:09:34;;;;;;;6.30;4.40;;;;;;;22.99;40.87;99840.06;4222050;28;20752;-76
2023/06/16 17:12:01;;;;;;;9.63;5.20;;;;;;;23.09;40.95;99855.97;4247282;28;20266;-72
2023/06/16 17:14:28;;;;;;;8.60;5.10;;;;;;;23.01;41.10;99850.84;4227580;28;20254;-71
2023/06/16 17:16:55;;;;;;;7.10;5.30;;;;;;;22.92;41.67;99853.97;4213223;28;20273;-70
2023/06/16 17:19:23;;;;;;;12.47;5.43;;;;;;;22.79;42.53;99854.25;4226582;28;20227;-70
2023/06/16 17:21:50;;;;;;;7.97;5.00;;;;;;;22.68;42.36;99855.09;4214335;28;20251;-74
2023/06/16 17:24:17;;;;;;;7.30;5.27;;;;;;;22.57;42.40;99851.28;4226130;28;20547;-74
2023/06/16 17:26:46;;;;;;;8.03;5.30;;;;;;;22.79;42.02;99852.31;4234994;28;20298;-72
2023/06/16 17:29:15;;;;;;;7.47;5.33;;;;;;;22.71;42.49;99847.19;4232688;28;20236;-71
2023/06/16 17:31:41;;;;;;;11.33;5.40;;;;;;;22.74;42.49;99848.59;4218709;28;25458;-72
2023/06/16 17:34:08;;;;;;;8.90;4.83;;;;;;;22.66;42.35;99849.84;4243857;28;20622;-72
2023/06/16 17:36:37;;;;;;;11.50;4.70;;;;;;;22.69;41.37;99840.22;4225845;28;20236;-70
2023/06/16 17:39:05;;;;;;;8.60;4.93;;;;;;;22.67;42.12;99853.41;4230453;28;20235;-72
2023/06/16 17:41:32;;;;;;;6.73;4.87;;;;;;;22.51;41.23;99847.56;4223879;28;20589;-77
2023/06/16 17:44:03;;;;;;;8.03;4.97;;;;;;;22.59;41.29;99849.13;4228144;28;20665;-74
2023/06/16 17:46:37;;;;;;;10.40;4.97;;;;;;;22.53;41.71;99841.81;4223519;28;20324;-71
2023/06/16 17:49:06;;;;;;;11.57;5.17;;;;;;;22.59;41.51;99846.38;4227706;28;20238;-72
2023/06/16 17:51:34;;;;;;;6.47;4.57;;;;;;;22.66;40.46;99849.84;4237223;28;20409;-70
2023/06/16 17:54:06;;;;;;;10.10;5.40;;;;;;;22.73;41.36;99844.19;4250408;28;21170;-76